Superferry II — SWKV — position and weather

sailwx.info

Track history (hours):
 
Tides and Currents Weather Stations Pressure Air Temp Water Temp Dewpoint Dewpoint Depression Visibility Wind Speed Wind Dir Waves Ship Positions

Superferry II

Last reported at 2014-Jul-24 16:33 UTC. Time now 2014-Jul-24 19:24 UTC.
Position N 38°01' E 024°02'.

Length 122 m; draft 4.7 m.

Type: Passenger vessel. MMSI: 237001000.

Date/timePositionNaut miles runAvg speedWind from/ knotsBaromVisibWave heightAir tempDewpointWater temp
2014-Jul-24 16:33N 38°01' E 024°02'0 0.1
2014-Jul-24 15:33N 38°01' E 024°02'5315.4
2014-Jul-24 12:08N 37°37' E 025°01'813.8
2014-Jul-24 11:33N 37°32' E 025°09'9 9.1
2014-Jul-24 10:33N 37°28' E 025°19'6 5.6
2014-Jul-24 09:33N 37°30' E 025°13'6414.9
2014-Jul-24 05:16N 38°01' E 024°03'3 0.2
2014-Jul-23 15:32N 38°00' E 024°06'2318.1
2014-Jul-23 14:15N 37°54' E 024°34'2311.8
2014-Jul-23 12:18N 37°39' E 024°57'1215.9
2014-Jul-23 11:32N 37°32' E 025°09'9 9.2
2014-Jul-23 10:33N 37°28' E 025°19'0 0.0
2014-Jul-23 09:32N 37°28' E 025°19'1212.0
2014-Jul-23 08:30N 37°34' E 025°06'55 3.2
2014-Jul-22 15:24N 38°01' E 024°05'4614.7
2014-Jul-22 12:15N 37°39' E 024°57'1217.2
2014-Jul-22 11:33N 37°32' E 025°09'9 8.9
2014-Jul-22 10:32N 37°28' E 025°19'1 1.5
2014-Jul-22 09:33N 37°28' E 025°18'1211.6
2014-Jul-22 08:33N 37°34' E 025°05'53 4.4
2014-Jul-21 20:23N 38°00' E 024°07'218.7
2014-Jul-21 20:18N 37°60' E 024°09'3 0.9
2014-Jul-21 16:34N 38°00' E 024°05'6 4.6
2014-Jul-21 15:19N 37°59' E 024°11'4313.9
2014-Jul-21 12:14N 37°38' E 024°59'1014.3
2014-Jul-21 11:32N 37°32' E 025°09'9 9.3
2014-Jul-21 10:33N 37°28' E 025°19'2 2.4
2014-Jul-21 09:33N 37°28' E 025°16'1312.6
2014-Jul-21 08:33N 37°35' E 025°03'4 0.2
2014-Jul-20 12:13N 37°38' E 024°59'1015.0
2014-Jul-20 11:33N 37°32' E 025°09'9 9.2
2014-Jul-20 10:33N 37°28' E 025°19'2 2.2
2014-Jul-20 09:32N 37°28' E 025°17'1312.8
2014-Jul-20 08:33N 37°35' E 025°03'4 0.2
2014-Jul-19 12:33N 37°33' E 025°07'1111.0
2014-Jul-19 11:33N 37°28' E 025°19'0 0.1
2014-Jul-19 10:33N 37°28' E 025°19'9 9.1
2014-Jul-19 09:33N 37°32' E 025°09'5814.3
2014-Jul-19 05:30N 38°00' E 024°05'6 0.7
2014-Jul-18 20:16N 37°58' E 024°13'9 2.5
2014-Jul-18 16:33N 38°01' E 024°02'1 0.5
2014-Jul-18 15:20N 38°01' E 024°03'5015.7
2014-Jul-18 12:08N 37°38' E 024°59'1015.9
2014-Jul-18 11:32N 37°32' E 025°09'9 9.4
2014-Jul-18 10:33N 37°28' E 025°19'7 7.5
2014-Jul-18 09:33N 37°31' E 025°11'62 5.1
2014-Jul-17 21:23N 38°01' E 024°03'2 0.6
2014-Jul-17 17:27N 38°00' E 024°06'2 2.1
2014-Jul-17 16:33N 38°01' E 024°03'5015.6
2014-Jul-17 13:20N 37°38' E 024°60'1012.6
2014-Jul-17 12:33N 37°32' E 025°10'6 5.6
2014-Jul-17 11:33N 37°28' E 025°15'6414.7
2014-Jul-17 07:11N 38°00' E 024°05'53 3.4
2014-Jul-16 15:33N 37°34' E 025°02'1111.4
2014-Jul-16 14:33N 37°29' E 025°15'4 3.7
2014-Jul-16 13:33N 37°28' E 025°19'0 0.0
2014-Jul-16 12:33N 37°28' E 025°19'0 0.0
2014-Jul-16 11:33N 37°28' E 025°19'0 0.0
2014-Jul-16 10:33N 37°28' E 025°19'1 0.9
2014-Jul-16 09:32N 37°28' E 025°18'1414.2
2014-Jul-16 08:32N 37°35' E 025°03'5115.0
2014-Jul-16 05:09N 37°60' E 024°06'47 2.8
2014-Jul-15 12:14N 37°38' E 024°59'1015.3
2014-Jul-15 11:33N 37°32' E 025°09'9 9.1
2014-Jul-15 10:33N 37°28' E 025°19'0 0.3
2014-Jul-15 09:34N 37°28' E 025°19'1313.0
2014-Jul-15 08:33N 37°34' E 025°04'5115.6
2014-Jul-15 05:18N 37°59' E 024°09'0 0.0
2014-Jul-14 20:29N 37°60' E 024°09'2118.7
2014-Jul-14 19:23N 37°54' E 024°34'  
Track history (hours):
 
Tides and Currents Weather Stations Pressure Air Temp Water Temp Dewpoint Dewpoint Depression Visibility Wind Speed Wind Dir Waves Ship Positions

Superferry II

Last reported at 2014-Jul-24 16:33 UTC. Time now 2014-Jul-24 19:24 UTC.
Position N 38°01' E 024°02'.

Length 122 m; draft 4.7 m.

Type: Passenger vessel. MMSI: 237001000.

Date/timePositionNaut miles runAvg speedWind from/ knotsBaromVisibWave heightAir tempDewpointWater temp
2014-Jul-24 16:33N 38°01' E 024°02'0 0.1
2014-Jul-24 15:33N 38°01' E 024°02'5315.4
2014-Jul-24 12:08N 37°37' E 025°01'813.8
2014-Jul-24 11:33N 37°32' E 025°09'9 9.1
2014-Jul-24 10:33N 37°28' E 025°19'6 5.6
2014-Jul-24 09:33N 37°30' E 025°13'6414.9
2014-Jul-24 05:16N 38°01' E 024°03'3 0.2
2014-Jul-23 15:32N 38°00' E 024°06'2318.1
2014-Jul-23 14:15N 37°54' E 024°34'2311.8
2014-Jul-23 12:18N 37°39' E 024°57'1215.9
2014-Jul-23 11:32N 37°32' E 025°09'9 9.2
2014-Jul-23 10:33N 37°28' E 025°19'0 0.0
2014-Jul-23 09:32N 37°28' E 025°19'1212.0
2014-Jul-23 08:30N 37°34' E 025°06'55 3.2
2014-Jul-22 15:24N 38°01' E 024°05'4614.7
2014-Jul-22 12:15N 37°39' E 024°57'1217.2
2014-Jul-22 11:33N 37°32' E 025°09'9 8.9
2014-Jul-22 10:32N 37°28' E 025°19'1 1.5
2014-Jul-22 09:33N 37°28' E 025°18'1211.6
2014-Jul-22 08:33N 37°34' E 025°05'53 4.4
2014-Jul-21 20:23N 38°00' E 024°07'218.7
2014-Jul-21 20:18N 37°60' E 024°09'3 0.9
2014-Jul-21 16:34N 38°00' E 024°05'6 4.6
2014-Jul-21 15:19N 37°59' E 024°11'4313.9
2014-Jul-21 12:14N 37°38' E 024°59'1014.3
2014-Jul-21 11:32N 37°32' E 025°09'9 9.3
2014-Jul-21 10:33N 37°28' E 025°19'2 2.4
2014-Jul-21 09:33N 37°28' E 025°16'1312.6
2014-Jul-21 08:33N 37°35' E 025°03'4 0.2
2014-Jul-20 12:13N 37°38' E 024°59'1015.0
2014-Jul-20 11:33N 37°32' E 025°09'9 9.2
2014-Jul-20 10:33N 37°28' E 025°19'2 2.2
2014-Jul-20 09:32N 37°28' E 025°17'1312.8
2014-Jul-20 08:33N 37°35' E 025°03'4 0.2
2014-Jul-19 12:33N 37°33' E 025°07'1111.0
2014-Jul-19 11:33N 37°28' E 025°19'0 0.1
2014-Jul-19 10:33N 37°28' E 025°19'9 9.1
2014-Jul-19 09:33N 37°32' E 025°09'5814.3
2014-Jul-19 05:30N 38°00' E 024°05'6 0.7
2014-Jul-18 20:16N 37°58' E 024°13'9 2.5
2014-Jul-18 16:33N 38°01' E 024°02'1 0.5
2014-Jul-18 15:20N 38°01' E 024°03'5015.7
2014-Jul-18 12:08N 37°38' E 024°59'1015.9
2014-Jul-18 11:32N 37°32' E 025°09'9 9.4
2014-Jul-18 10:33N 37°28' E 025°19'7 7.5
2014-Jul-18 09:33N 37°31' E 025°11'62 5.1
2014-Jul-17 21:23N 38°01' E 024°03'2 0.6
2014-Jul-17 17:27N 38°00' E 024°06'2 2.1
2014-Jul-17 16:33N 38°01' E 024°03'5015.6
2014-Jul-17 13:20N 37°38' E 024°60'1012.6
2014-Jul-17 12:33N 37°32' E 025°10'6 5.6
2014-Jul-17 11:33N 37°28' E 025°15'6414.7
2014-Jul-17 07:11N 38°00' E 024°05'53 3.4
2014-Jul-16 15:33N 37°34' E 025°02'1111.4
2014-Jul-16 14:33N 37°29' E 025°15'4 3.7
2014-Jul-16 13:33N 37°28' E 025°19'0 0.0
2014-Jul-16 12:33N 37°28' E 025°19'0 0.0
2014-Jul-16 11:33N 37°28' E 025°19'0 0.0
2014-Jul-16 10:33N 37°28' E 025°19'1 0.9
2014-Jul-16 09:32N 37°28' E 025°18'1414.2
2014-Jul-16 08:32N 37°35' E 025°03'5115.0
2014-Jul-16 05:09N 37°60' E 024°06'47 2.8
2014-Jul-15 12:14N 37°38' E 024°59'1015.3
2014-Jul-15 11:33N 37°32' E 025°09'9 9.1
2014-Jul-15 10:33N 37°28' E 025°19'0 0.3
2014-Jul-15 09:34N 37°28' E 025°19'1313.0
2014-Jul-15 08:33N 37°34' E 025°04'5115.6
2014-Jul-15 05:18N 37°59' E 024°09'0 0.0
2014-Jul-14 20:29N 37°60' E 024°09'2118.7
2014-Jul-14 19:23N 37°54' E 024°34'  

Dump ship's entire track history